Private Wetterstation Wechselburg
Wetterdaten: Woche 02.12.13 - 08.12.13 (KW49)
Datum Zeit Temp. +2m Bodentemp. Temp.+5cm Temp. Wind Windchill X Diff Temp. Feuchte +2m Feuchte +5cm Sonnenschein Luftdruck Regen Wind Richtung Sonnenschein UV Taupunkt Windchill Windben
02.12.2013 00:00 5,1 C 14,1 C 5,4 C 5,9 C 5,9 C 0,8 C 88 % 88 % 0 % 1030,0 hPa 0,0 l/m 2,2 km/h (1 Bft) W-SW 0,00 h 0,0 UV-I 3,2 C 5,9 C 4,2 km/h (1 Bft)
02.12.2013 01:00 4,9 C 14,1 C 5,3 C 5,8 C 5,8 C 0,8 C 88 % 88 % 0 % 1030,5 hPa 0,0 l/m 1,8 km/h (1 Bft) W-SW 0,00 h 0,0 UV-I 3,1 C 5,8 C 2,0 km/h (1 Bft)
02.12.2013 02:00 4,7 C 14,2 C 5,1 C 5,4 C 5,4 C 0,7 C 88 % 88 % 0 % 1031,1 hPa 0,0 l/m 0,6 km/h (0 Bft) SO 0,00 h 0,0 UV-I 2,9 C 5,4 C 1,9 km/h (1 Bft)
02.12.2013 03:00 4,3 C 14,2 C 4,9 C 5,1 C 5,1 C 0,8 C 88 % 88 % 0 % 1031,2 hPa 0,0 l/m 0,7 km/h (0 Bft) N-NW 0,00 h 0,0 UV-I 2,5 C 5,1 C 1,7 km/h (1 Bft)
02.12.2013 04:00 4,2 C 14,3 C 4,9 C 5,2 C 5,2 C 1,0 C 88 % 88 % 0 % 1031,6 hPa 0,0 l/m 2,2 km/h (1 Bft) N-NO 0,00 h 0,0 UV-I 2,4 C 5,2 C 3,7 km/h (1 Bft)
02.12.2013 05:00 3,8 C 14,3 C 4,6 C 4,8 C 4,8 C 1,0 C 88 % 88 % 0 % 1033,1 hPa 0,0 l/m 1,5 km/h (1 Bft) O-NO 0,00 h 0,0 UV-I 2,0 C 4,8 C 1,6 km/h (1 Bft)
02.12.2013 06:00 3,3 C 14,3 C 4,1 C 4,0 C 4,0 C 0,7 C 88 % 88 % 0 % 1033,7 hPa 0,0 l/m 0,5 km/h (0 Bft) O-NO 0,00 h 0,0 UV-I 1,5 C 4,0 C 0,7 km/h (0 Bft)
02.12.2013 07:00 2,8 C 14,3 C 3,9 C 3,8 C 3,8 C 1,0 C 89 % 88 % 0 % 1033,7 hPa 0,0 l/m 0,8 km/h (0 Bft) O-NO 0,00 h 0,0 UV-I 1,1 C 3,8 C 0,9 km/h (0 Bft)
02.12.2013 08:00 2,8 C 14,3 C 3,9 C 4,0 C 4,0 C 1,2 C 89 % 88 % 29 % 1034,6 hPa 0,0 l/m 0,1 km/h (0 Bft) N 0,92 h 0,0 UV-I 1,1 C 4,0 C 0,0 km/h (0 Bft)
02.12.2013 09:00 3,1 C 14,2 C 4,4 C 4,9 C 4,9 C 1,8 C 89 % 88 % 48 % 1034,7 hPa 0,0 l/m 0,2 km/h (0 Bft) O-NO 0,25 h 0,0 UV-I 1,4 C 4,9 C 0,6 km/h (0 Bft)
02.12.2013 10:00 3,8 C 14,0 C 5,0 C 5,8 C 5,8 C 2,0 C 87 % 86 % 52 % 1035,1 hPa 0,0 l/m 1,3 km/h (1 Bft) O-NO 0,00 h 0,0 UV-I 1,8 C 5,8 C 1,4 km/h (1 Bft)
02.12.2013 11:00 4,5 C 14,0 C 5,5 C 6,3 C 6,3 C 1,8 C 84 % 84 % 46 % 1035,5 hPa 0,0 l/m 2,1 km/h (1 Bft) O-NO 0,00 h 0,0 UV-I 2,1 C 6,3 C 2,8 km/h (1 Bft)
02.12.2013 12:00 4,9 C 14,0 C 5,1 C 6,8 C 6,8 C 1,9 C 83 % 84 % 50 % 1036,0 hPa 0,0 l/m 1,3 km/h (1 Bft) N-NW 0,00 h 0,0 UV-I 2,2 C 6,8 C 1,9 km/h (1 Bft)
02.12.2013 13:00 4,9 C 14,0 C 4,6 C 6,1 C 6,1 C 1,2 C 82 % 83 % 33 % 1036,0 hPa 0,0 l/m 1,2 km/h (1 Bft) O-NO 0,00 h 0,0 UV-I 2,1 C 6,1 C 1,7 km/h (1 Bft)
02.12.2013 14:00 5,4 C 14,1 C 4,8 C 7,5 C 7,5 C 2,1 C 81 % 83 % 55 % 1035,7 hPa 0,0 l/m 0,5 km/h (0 Bft) O 0,00 h 0,0 UV-I 2,4 C 7,5 C 0,8 km/h (0 Bft)
02.12.2013 15:00 4,9 C 14,1 C 4,2 C 5,1 C 4,9 C 0,3 C 81 % 83 % 8 % 1035,5 hPa 0,0 l/m 0,1 km/h (0 Bft) N 0,00 h 0,0 UV-I 2,0 C 4,9 C 0,3 km/h (0 Bft)
02.12.2013 16:00 3,5 C 14,4 C 2,6 C 3,0 C 2,1 C 0,0 C 84 % 85 % 0 % 1035,8 hPa 0,0 l/m 0,1 km/h (0 Bft) N 0,00 h 0,0 UV-I 1,0 C 2,1 C 0,2 km/h (0 Bft)
02.12.2013 17:00 1,7 C 14,5 C 1,0 C 1,3 C 0,4 C 0,0 C 86 % 86 % 0 % 1035,8 hPa 0,0 l/m 0,0 km/h (0 Bft) N 0,00 h 0,0 UV-I -0,5 C 0,4 C 0,0 km/h (0 Bft)
02.12.2013 18:00 0,6 C 14,5 C 0,4 C 0,4 C -0,0 C 0,0 C 87 % 87 % 0 % 1035,6 hPa 0,0 l/m 0,0 km/h (0 Bft) N 0,00 h 0,0 UV-I -1,2 C -0,0 C 0,2 km/h (0 Bft)
02.12.2013 19:00 -0,5 C 14,4 C -0,1 C -0,6 C -1,0 C 0,0 C 88 % 88 % 0 % 1035,7 hPa 0,0 l/m 0,0 km/h (0 Bft) N 0,00 h 0,0 UV-I -2,2 C -1,0 C 0,0 km/h (0 Bft)
02.12.2013 20:00 -0,3 C 14,3 C 0,8 C 0,4 C 0,4 C 0,6 C 89 % 88 % 0 % 1035,5 hPa 0,0 l/m 1,8 km/h (1 Bft) O-NO 0,00 h 0,0 UV-I -1,8 C 0,4 C 2,5 km/h (1 Bft)
02.12.2013 21:00 -0,8 C 14,3 C 0,0 C -0,7 C -0,8 C 0,1 C 90 % 89 % 0 % 1035,4 hPa 0,0 l/m 0,3 km/h (0 Bft) O-NO 0,00 h 0,0 UV-I -2,2 C -0,8 C 0,1 km/h (0 Bft)
02.12.2013 22:00 -1,3 C 14,2 C -0,7 C -1,2 C -1,3 C 0,1 C 90 % 89 % 0 % 1034,9 hPa 0,0 l/m 0,5 km/h (0 Bft) NO 0,00 h 0,0 UV-I -2,7 C -1,3 C 0,6 km/h (0 Bft)
02.12.2013 23:00 -1,8 C 14,1 C -1,0 C -1,8 C -1,9 C 0,0 C 90 % 89 % 0 % 1034,5 hPa 0,0 l/m 0,3 km/h (0 Bft) N 0,00 h 0,0 UV-I -3,2 C -1,9 C 0,5 km/h (0 Bft)
03.12.2013 00:00 -2,2 C 13,9 C -1,4 C -2,1 C -2,2 C 0,1 C 90 % 89 % 0 % 1034,4 hPa 0,0 l/m 0,1 km/h (0 Bft) N 0,00 h 0,0 UV-I -3,6 C -2,2 C 0,2 km/h (0 Bft)
03.12.2013 01:00 -2,2 C 13,9 C -1,4 C -2,1 C -2,1 C 0,1 C 91 % 90 % 0 % 1033,7 hPa 0,0 l/m 0,3 km/h (0 Bft) NO 0,00 h 0,0 UV-I -3,5 C -2,1 C 0,2 km/h (0 Bft)
03.12.2013 02:00 -2,6 C 13,7 C -1,8 C -2,6 C -2,8 C 0,0 C 91 % 90 % 0 % 1032,7 hPa 0,0 l/m 0,0 km/h (0 Bft) N 0,00 h 0,0 UV-I -3,9 C -2,8 C 0,0 km/h (0 Bft)
03.12.2013 03:00 -3,1 C 13,6 C -2,2 C -3,2 C -3,5 C 0,0 C 90 % 89 % 0 % 1032,5 hPa 0,0 l/m 0,0 km/h (0 Bft) N 0,00 h 0,0 UV-I -4,5 C -3,5 C 0,0 km/h (0 Bft)
03.12.2013 04:00 -3,6 C 13,5 C -2,6 C -3,7 C -3,8 C 0,0 C 90 % 89 % 0 % 1032,2 hPa 0,0 l/m 0,0 km/h (0 Bft) N 0,00 h 0,0 UV-I -5,0 C -3,8 C 0,0 km/h (0 Bft)
03.12.2013 05:00 -4,0 C 13,4 C -2,9 C -4,1 C -4,2 C 0,0 C 90 % 89 % 0 % 1031,9 hPa 0,0 l/m 0,0 km/h (0 Bft) N 0,00 h 0,0 UV-I -5,4 C -4,2 C 0,0 km/h (0 Bft)
03.12.2013 06:00 -4,4 C 13,3 C -3,1 C -4,5 C -4,7 C 0,0 C 90 % 89 % 0 % 1031,1 hPa 0,0 l/m 0,0 km/h (0 Bft) N 0,00 h 0,0 UV-I -5,8 C -4,7 C 0,0 km/h (0 Bft)
03.12.2013 07:00 -4,6 C 13,1 C -3,3 C -4,6 C -4,8 C 0,0 C 91 % 89 % 0 % 1030,8 hPa 0,0 l/m 0,0 km/h (0 Bft) N 0,00 h 0,0 UV-I -5,8 C -4,8 C 0,0 km/h (0 Bft)
03.12.2013 08:00 -4,6 C 13,1 C -3,1 C -4,5 C -4,5 C 0,2 C 91 % 89 % 5 % 1030,8 hPa 0,0 l/m 0,0 km/h (0 Bft) N 0,00 h 0,0 UV-I -5,9 C -4,5 C 0,0 km/h (0 Bft)
03.12.2013 09:00 -3,9 C 13,0 C -2,2 C -3,0 C -3,0 C 0,9 C 91 % 89 % 24 % 1031,1 hPa 0,0 l/m 0,0 km/h (0 Bft) N 0,00 h 0,0 UV-I -5,1 C -3,0 C 0,0 km/h (0 Bft)
03.12.2013 10:00 -2,8 C 12,8 C -1,1 C -1,2 C -1,2 C 1,6 C 92 % 89 % 43 % 1031,3 hPa 0,7 l/m 0,0 km/h (0 Bft) N 0,00 h 0,0 UV-I -4,0 C -1,2 C 0,0 km/h (0 Bft)
03.12.2013 11:00 -1,2 C 12,7 C 0,3 C 1,9 C 1,9 C 3,1 C 92 % 89 % 82 % 1030,8 hPa 0,0 l/m 0,2 km/h (0 Bft) N 0,50 h 0,0 UV-I -2,3 C 1,9 C 0,4 km/h (0 Bft)
03.12.2013 12:00 0,3 C 12,4 C 1,5 C 3,0 C 3,0 C 2,7 C 91 % 88 % 71 % 1030,1 hPa 0,0 l/m 0,9 km/h (0 Bft) S 0,10 h 0,0 UV-I -1,0 C 3,0 C 1,7 km/h (1 Bft)
03.12.2013 13:00 2,4 C 12,4 C 2,4 C 4,6 C 4,6 C 2,2 C 86 % 86 % 58 % 1029,6 hPa 0,0 l/m 0,5 km/h (0 Bft) N 0,00 h 0,0 UV-I 0,4 C 4,6 C 1,5 km/h (1 Bft)
03.12.2013 14:00 3,8 C 12,4 C 2,4 C 4,8 C 4,8 C 1,0 C 79 % 84 % 27 % 1028,7 hPa 0,0 l/m 0,1 km/h (0 Bft) N 0,00 h 0,0 UV-I 0,4 C 4,8 C 0,0 km/h (0 Bft)
03.12.2013 15:00 3,2 C 12,6 C 1,5 C 3,1 C 2,7 C 0,1 C 78 % 84 % 3 % 1028,5 hPa 0,0 l/m 0,0 km/h (0 Bft) N 0,00 h 0,0 UV-I -0,3 C 2,7 C 0,0 km/h (0 Bft)
03.12.2013 16:00 1,1 C 12,8 C -0,1 C 0,5 C -0,8 C 0,0 C 81 % 86 % 0 % 1028,1 hPa 0,0 l/m 0,0 km/h (0 Bft) N 0,00 h 0,0 UV-I -1,8 C -0,8 C 0,0 km/h (0 Bft)
03.12.2013 17:00 -0,7 C 12,9 C -1,3 C -1,3 C -2,4 C 0,0 C 84 % 87 % 0 % 1027,9 hPa 0,0 l/m 0,0 km/h (0 Bft) N 0,00 h 0,0 UV-I -3,0 C -2,4 C 0,0 km/h (0 Bft)
03.12.2013 18:00 -1,9 C 12,9 C -1,8 C -2,3 C -3,1 C 0,0 C 86 % 87 % 0 % 1027,9 hPa 0,0 l/m 0,0 km/h (0 Bft) N 0,00 h 0,0 UV-I -3,9 C -3,1 C 0,0 km/h (0 Bft)
03.12.2013 19:00 -2,6 C 13,0 C -2,0 C -2,7 C -3,0 C 0,0 C 88 % 88 % 0 % 1027,8 hPa 0,0 l/m 0,0 km/h (0 Bft) N 0,00 h 0,0 UV-I -4,3 C -3,0 C 0,0 km/h (0 Bft)
03.12.2013 20:00 -3,0 C 12,9 C -2,3 C -3,1 C -3,4 C 0,0 C 88 % 88 % 0 % 1027,9 hPa 0,0 l/m 0,0 km/h (0 Bft) N 0,00 h 0,0 UV-I -4,7 C -3,4 C 0,0 km/h (0 Bft)
03.12.2013 21:00 -3,1 C 12,8 C -2,4 C -3,0 C -3,0 C 0,0 C 89 % 88 % 0 % 1027,7 hPa 0,0 l/m 0,1 km/h (0 Bft) N 0,00 h 0,0 UV-I -4,6 C -3,0 C 0,1 km/h (0 Bft)
03.12.2013 22:00 -3,1 C 12,7 C -2,5 C -3,1 C -3,1 C 0,1 C 89 % 88 % 0 % 1027,4 hPa 0,0 l/m 0,1 km/h (0 Bft) N 0,00 h 0,0 UV-I -4,7 C -3,1 C 0,3 km/h (0 Bft)
03.12.2013 23:00 -3,4 C 12,6 C -2,5 C -3,4 C -3,4 C 0,0 C 89 % 89 % 0 % 1027,1 hPa 0,0 l/m 0,0 km/h (0 Bft) N 0,00 h 0,0 UV-I -4,9 C -3,4 C 0,0 km/h (0 Bft)
04.12.2013 00:00 -3,5 C 12,6 C -2,7 C -3,5 C -3,5 C 0,0 C 89 % 89 % 0 % 1026,6 hPa 0,0 l/m 0,0 km/h (0 Bft) N 0,00 h 0,0 UV-I -5,1 C -3,5 C 0,0 km/h (0 Bft)
04.12.2013 01:00 -4,0 C 12,6 C -3,0 C -4,1 C -4,2 C 0,0 C 89 % 89 % 0 % 1026,3 hPa 0,0 l/m 0,0 km/h (0 Bft) N 0,00 h 0,0 UV-I -5,5 C -4,2 C 0,0 km/h (0 Bft)
04.12.2013 02:00 -4,2 C 12,5 C -3,3 C -4,2 C -4,3 C 0,0 C 89 % 88 % 0 % 1025,8 hPa 0,0 l/m 0,0 km/h (0 Bft) N 0,00 h 0,0 UV-I -5,7 C -4,3 C 0,0 km/h (0 Bft)
04.12.2013 03:00 -4,5 C 12,4 C -3,4 C -4,2 C -4,2 C 0,3 C 89 % 89 % 0 % 1025,5 hPa 0,0 l/m 0,0 km/h (0 Bft) N 0,00 h 0,0 UV-I -6,0 C -4,2 C 0,0 km/h (0 Bft)
04.12.2013 04:00 -4,2 C 12,3 C -3,2 C -3,8 C -3,8 C 0,5 C 90 % 89 % 0 % 1024,5 hPa 0,0 l/m 0,0 km/h (0 Bft) N 0,00 h 0,0 UV-I -5,6 C -3,8 C 0,0 km/h (0 Bft)
04.12.2013 05:00 -2,8 C 12,1 C -2,5 C -2,7 C -2,9 C 0,3 C 91 % 89 % 0 % 1023,9 hPa 0,0 l/m 1,6 km/h (1 Bft) W-SW 0,00 h 0,0 UV-I -4,1 C -2,9 C 2,7 km/h (1 Bft)
04.12.2013 06:00 -1,3 C 12,0 C -1,2 C -1,9 C -3,0 C 0,0 C 89 % 89 % 0 % 1023,6 hPa 0,0 l/m 4,4 km/h (1 Bft) SW 0,00 h 0,0 UV-I -2,9 C -4,1 C 5,4 km/h (1 Bft)
04.12.2013 07:00 -0,8 C 11,9 C -1,2 C -1,6 C -3,3 C 0,0 C 86 % 88 % 0 % 1023,5 hPa 0,0 l/m 4,4 km/h (1 Bft) SW 0,00 h 0,0 UV-I -2,8 C -4,5 C 6,5 km/h (2 Bft)
04.12.2013 08:00 -1,1 C 11,9 C -1,0 C -2,1 C -4,5 C 0,0 C 87 % 88 % 0 % 1024,1 hPa 0,0 l/m 7,7 km/h (2 Bft) W-SW 0,00 h 0,0 UV-I -3,0 C -7,8 C 11,0 km/h (2 Bft)
04.12.2013 09:00 -0,9 C 11,9 C -0,3 C -1,5 C -3,6 C 0,0 C 87 % 87 % 0 % 1024,3 hPa 0,0 l/m 8,3 km/h (2 Bft) W-SW 0,00 h 0,0 UV-I -2,8 C -7,0 C 9,3 km/h (2 Bft)
04.12.2013 10:00 -0,6 C 11,8 C 0,0 C -1,2 C -2,7 C 0,0 C 86 % 87 % 0 % 1024,7 hPa 0,0 l/m 7,3 km/h (2 Bft) W-SW 0,00 h 0,0 UV-I -2,6 C -5,6 C 9,9 km/h (2 Bft)
04.12.2013 11:00 -0,1 C 11,7 C 0,4 C -0,6 C -1,8 C 0,0 C 86 % 86 % 0 % 1024,6 hPa 0,0 l/m 7,1 km/h (2 Bft) SW 0,00 h 0,0 UV-I -2,2 C -4,5 C 11,4 km/h (2 Bft)
04.12.2013 12:00 -0,0 C 11,7 C 0,4 C -0,5 C -2,5 C 0,0 C 86 % 86 % 0 % 1024,4 hPa 0,0 l/m 9,4 km/h (2 Bft) W-SW 0,00 h 0,0 UV-I -2,1 C -6,1 C 13,5 km/h (3 Bft)
04.12.2013 13:00 0,0 C 11,7 C 0,4 C -0,5 C -2,1 C 0,0 C 85 % 85 % 0 % 1023,9 hPa 0,0 l/m 7,3 km/h (2 Bft) W-SW 0,00 h 0,0 UV-I -2,1 C -4,8 C 9,7 km/h (2 Bft)
04.12.2013 14:00 0,3 C 11,7 C 0,7 C -0,2 C -1,5 C 0,0 C 86 % 85 % 0 % 1023,4 hPa 0,0 l/m 6,8 km/h (2 Bft) SW 0,00 h 0,0 UV-I -1,8 C -4,1 C 9,5 km/h (2 Bft)
04.12.2013 15:00 0,8 C 11,7 C 1,0 C 0,2 C -1,4 C 0,0 C 85 % 85 % 0 % 1023,4 hPa 0,0 l/m 7,8 km/h (2 Bft) SW 0,00 h 0,0 UV-I -1,4 C -4,3 C 9,2 km/h (2 Bft)
04.12.2013 16:00 1,2 C 11,8 C 1,2 C 0,7 C -0,6 C 0,0 C 85 % 85 % 0 % 1023,5 hPa 0,0 l/m 6,7 km/h (2 Bft) SW 0,00 h 0,0 UV-I -1,0 C -3,0 C 8,7 km/h (2 Bft)
04.12.2013 17:00 1,1 C 12,0 C 1,4 C 0,6 C -0,4 C 0,0 C 87 % 86 % 0 % 1023,8 hPa 0,0 l/m 6,0 km/h (2 Bft) W-SW 0,00 h 0,0 UV-I -0,8 C -2,3 C 6,3 km/h (2 Bft)
04.12.2013 18:00 0,8 C 12,2 C 1,5 C 0,8 C 0,7 C 0,0 C 88 % 87 % 0 % 1023,4 hPa 0,0 l/m 3,5 km/h (1 Bft) NW 0,00 h 0,0 UV-I -0,9 C 0,7 C 5,8 km/h (2 Bft)
04.12.2013 19:00 0,7 C 12,3 C 1,5 C 0,5 C 0,0 C 0,0 C 89 % 88 % 0 % 1023,5 hPa 0,0 l/m 5,0 km/h (1 Bft) W-SW 0,00 h 0,0 UV-I -0,9 C -1,2 C 8,3 km/h (2 Bft)
04.12.2013 20:00 0,9 C 12,3 C 1,6 C 0,5 C -0,4 C 0,0 C 90 % 89 % 0 % 1024,1 hPa 1,4 l/m 6,9 km/h (2 Bft) SW 0,00 h 0,0 UV-I -0,6 C -2,8 C 8,6 km/h (2 Bft)
04.12.2013 21:00 1,2 C 12,4 C 1,9 C 0,7 C -0,6 C 0,0 C 91 % 90 % 0 % 1024,4 hPa 1,4 l/m 8,3 km/h (2 Bft) W-SW 0,00 h 0,0 UV-I -0,2 C -3,5 C 10,0 km/h (2 Bft)
04.12.2013 22:00 1,5 C 12,4 C 2,2 C 1,1 C -0,1 C 0,0 C 91 % 90 % 0 % 1024,9 hPa 0,0 l/m 8,2 km/h (2 Bft) SW 0,00 h 0,0 UV-I 0,2 C -2,9 C 9,5 km/h (2 Bft)
04.12.2013 23:00 1,9 C 12,4 C 2,5 C 1,8 C 1,6 C 0,1 C 90 % 91 % 0 % 1025,4 hPa 0,0 l/m 4,8 km/h (1 Bft) W-SW 0,00 h 0,0 UV-I 0,4 C 0,5 C 5,2 km/h (1 Bft)
05.12.2013 00:00 1,9 C 12,4 C 2,5 C 2,2 C 2,1 C 0,3 C 90 % 91 % 0 % 1026,1 hPa 0,0 l/m 3,4 km/h (1 Bft) W-SW 0,00 h 0,0 UV-I 0,4 C 2,1 C 4,4 km/h (1 Bft)
05.12.2013 01:00 1,4 C 12,5 C 1,7 C 1,0 C 0,3 C 0,0 C 90 % 91 % 0 % 1026,3 hPa 0,0 l/m 4,4 km/h (1 Bft) W 0,00 h 0,0 UV-I -0,1 C -0,3 C 5,1 km/h (1 Bft)
05.12.2013 02:00 1,0 C 12,5 C 1,3 C 0,7 C 0,2 C 0,0 C 90 % 91 % 0 % 1026,2 hPa 0,0 l/m 3,8 km/h (1 Bft) W-SW 0,00 h 0,0 UV-I -0,5 C 0,1 C 4,9 km/h (1 Bft)
05.12.2013 03:00 0,8 C 12,5 C 1,3 C 0,5 C -0,3 C 0,0 C 90 % 91 % 0 % 1026,4 hPa 0,0 l/m 5,0 km/h (1 Bft) W-SW 0,00 h 0,0 UV-I -0,6 C -1,5 C 7,5 km/h (2 Bft)
05.12.2013 04:00 1,0 C 12,5 C 1,5 C 0,5 C -0,3 C 0,0 C 90 % 91 % 0 % 1026,2 hPa 0,0 l/m 5,9 km/h (2 Bft) SW 0,00 h 0,0 UV-I -0,4 C -2,4 C 7,5 km/h (2 Bft)
05.12.2013 05:00 0,7 C 12,4 C 1,0 C -0,0 C -1,3 C 0,0 C 89 % 91 % 0 % 1025,7 hPa 0,0 l/m 6,3 km/h (2 Bft) W-SW 0,00 h 0,0 UV-I -0,9 C -3,7 C 8,1 km/h (2 Bft)
05.12.2013 06:00 0,5 C 12,5 C 0,8 C -0,2 C -1,4 C 0,0 C 89 % 91 % 0 % 1025,4 hPa 0,0 l/m 6,2 km/h (2 Bft) SW 0,00 h 0,0 UV-I -1,1 C -3,7 C 7,3 km/h (2 Bft)
05.12.2013 07:00 0,9 C 12,3 C 1,2 C 0,8 C 0,5 C 0,1 C 89 % 92 % 0 % 1025,1 hPa 0,0 l/m 4,3 km/h (1 Bft) S 0,00 h 0,0 UV-I -0,7 C -0,3 C 4,9 km/h (1 Bft)
05.12.2013 08:00 0,9 C 12,2 C 1,0 C 0,8 C 0,6 C 0,0 C 88 % 92 % 1 % 1024,4 hPa 0,0 l/m 3,1 km/h (1 Bft) N-NO 0,00 h 0,0 UV-I -0,9 C 0,6 C 4,2 km/h (1 Bft)
05.12.2013 09:00 1,6 C 12,1 C 1,5 C 1,7 C 1,6 C 0,1 C 86 % 91 % 4 % 1024,0 hPa 0,0 l/m 4,1 km/h (1 Bft) SO 0,00 h 0,0 UV-I -0,4 C 1,6 C 6,1 km/h (2 Bft)
05.12.2013 10:00 2,5 C 12,1 C 2,2 C 2,3 C 1,8 C 0,0 C 83 % 91 % 0 % 1023,4 hPa 0,0 l/m 6,2 km/h (2 Bft) S-SO 0,00 h 0,0 UV-I -0,1 C -0,0 C 12,9 km/h (3 Bft)
05.12.2013 11:00 2,8 C 12,1 C 2,8 C 2,6 C 2,2 C 0,0 C 81 % 90 % 0 % 1021,6 hPa 0,0 l/m 6,1 km/h (2 Bft) S-SO 0,00 h 0,0 UV-I -0,0 C 0,5 C 8,3 km/h (2 Bft)
05.12.2013 12:00 3,2 C 12,1 C 3,4 C 3,0 C 2,3 C 0,0 C 80 % 88 % 0 % 1019,7 hPa 0,0 l/m 7,1 km/h (2 Bft) W 0,00 h 0,0 UV-I 0,1 C 0,3 C 14,6 km/h (3 Bft)
05.12.2013 13:00 3,3 C 12,1 C 3,2 C 2,8 C 1,4 C 0,0 C 77 % 84 % 0 % 1017,1 hPa 0,0 l/m 8,9 km/h (2 Bft) S-SW 0,00 h 0,0 UV-I -0,3 C -1,4 C 12,6 km/h (3 Bft)
05.12.2013 14:00 3,3 C 12,1 C 2,9 C 2,7 C 1,0 C 0,0 C 77 % 83 % 0 % 1015,5 hPa 0,0 l/m 8,7 km/h (2 Bft) SW 0,00 h 0,0 UV-I -0,4 C -1,7 C 11,5 km/h (2 Bft)
05.12.2013 15:00 3,5 C 12,2 C 2,9 C 2,9 C 1,2 C 0,0 C 76 % 82 % 0 % 1012,5 hPa 0,0 l/m 8,4 km/h (2 Bft) O 0,00 h 0,0 UV-I -0,4 C -1,5 C 12,2 km/h (2 Bft)
05.12.2013 16:00 3,8 C 12,2 C 3,3 C 3,2 C 1,4 C 0,0 C 74 % 80 % 0 % 1009,0 hPa 0,0 l/m 9,8 km/h (2 Bft) S-SO 0,00 h 0,0 UV-I -0,3 C -1,6 C 15,6 km/h (3 Bft)
05.12.2013 17:00 4,4 C 12,1 C 3,9 C 3,7 C 1,5 C 0,0 C 73 % 79 % 0 % 1006,4 hPa 0,0 l/m 13,3 km/h (3 Bft) S-SW 0,00 h 0,0 UV-I -0,0 C -2,2 C 24,8 km/h (4 Bft)
05.12.2013 18:00 4,6 C 12,1 C 4,2 C 3,8 C 1,1 C 0,0 C 74 % 78 % 0 % 1007,0 hPa 0,0 l/m 16,5 km/h (3 Bft) SW 0,00 h 0,0 UV-I 0,4 C -3,3 C 23,8 km/h (4 Bft)
05.12.2013 19:00 3,6 C 12,5 C 2,9 C 2,3 C -1,3 C 0,0 C 84 % 87 % 0 % 1005,7 hPa 0,7 l/m 18,0 km/h (3 Bft) W-SW 0,00 h 0,0 UV-I 1,1 C -6,5 C 20,3 km/h (4 Bft)
05.12.2013 20:00 3,9 C 12,5 C 3,1 C 2,7 C -0,6 C 0,0 C 84 % 89 % 0 % 1004,5 hPa 0,0 l/m 17,8 km/h (3 Bft) SW 0,00 h 0,0 UV-I 1,4 C -5,6 C 21,6 km/h (4 Bft)
05.12.2013 21:00 4,2 C 12,5 C 3,5 C 3,0 C -0,2 C 0,0 C 84 % 89 % 0 % 1004,5 hPa 0,7 l/m 19,6 km/h (3 Bft) SW 0,00 h 0,0 UV-I 1,8 C -5,4 C 26,8 km/h (4 Bft)
05.12.2013 22:00 3,5 C 12,7 C 3,2 C 2,5 C -1,0 C 0,0 C 86 % 89 % 0 % 1004,9 hPa 0,7 l/m 21,7 km/h (4 Bft) SW 0,00 h 0,0 UV-I 1,4 C -6,7 C 27,9 km/h (4 Bft)
05.12.2013 23:00 3,0 C 12,7 C 2,4 C 2,0 C -1,2 C 0,0 C 84 % 89 % 0 % 1006,4 hPa 0,0 l/m 16,5 km/h (3 Bft) W-SW 0,00 h 0,0 UV-I 0,6 C -6,2 C 20,1 km/h (4 Bft)
06.12.2013 00:00 2,8 C 12,5 C 2,0 C 1,9 C -0,9 C 0,0 C 82 % 89 % 0 % 1007,4 hPa 0,0 l/m 14,4 km/h (3 Bft) SW 0,00 h 0,0 UV-I -0,0 C -5,4 C 21,6 km/h (4 Bft)
06.12.2013 01:00 2,4 C 12,4 C 1,2 C 1,5 C -1,5 C 0,0 C 76 % 89 % 0 % 1007,8 hPa 0,0 l/m 13,9 km/h (3 Bft) SW 0,00 h 0,0 UV-I -1,5 C -6,0 C 17,7 km/h (3 Bft)
06.12.2013 02:00 1,8 C 12,3 C 1,1 C 0,5 C -3,2 C 0,0 C 75 % 87 % 0 % 1008,1 hPa 0,0 l/m 18,7 km/h (3 Bft) SW 0,00 h 0,0 UV-I -2,1 C -9,0 C 24,7 km/h (4 Bft)
06.12.2013 03:00 1,8 C 12,2 C 1,0 C 0,3 C -3,3 C 0,0 C 72 % 83 % 0 % 1008,7 hPa 0,0 l/m 18,5 km/h (3 Bft) S 0,00 h 0,0 UV-I -2,7 C -9,1 C 23,6 km/h (4 Bft)
06.12.2013 04:00 1,9 C 12,1 C 1,2 C 0,6 C -3,0 C 0,0 C 68 % 79 % 0 % 1008,5 hPa 0,0 l/m 18,9 km/h (3 Bft) S-SW 0,00 h 0,0 UV-I -3,4 C -8,9 C 28,6 km/h (4 Bft)
06.12.2013 05:00 1,9 C 12,0 C 1,3 C 0,7 C -3,0 C 0,0 C 66 % 76 % 0 % 1008,6 hPa 0,0 l/m 19,0 km/h (3 Bft) S 0,00 h 0,0 UV-I -3,8 C -8,8 C 24,7 km/h (4 Bft)
06.12.2013 06:00 1,9 C 11,9 C 1,4 C 0,7 C -2,9 C 0,0 C 65 % 74 % 0 % 1008,5 hPa 0,0 l/m 19,5 km/h (3 Bft) SW 0,00 h 0,0 UV-I -3,9 C -8,8 C 24,9 km/h (4 Bft)
06.12.2013 07:00 1,8 C 11,8 C 1,2 C 0,5 C -3,5 C 0,0 C 67 % 74 % 0 % 1009,0 hPa 0,0 l/m 21,0 km/h (4 Bft) S 0,00 h 0,0 UV-I -3,8 C -9,8 C 24,8 km/h (4 Bft)
06.12.2013 08:00 1,8 C 11,8 C 1,4 C 0,6 C -3,0 C 0,0 C 67 % 74 % 0 % 1009,6 hPa 0,0 l/m 19,6 km/h (3 Bft) SW 0,00 h 0,0 UV-I -3,6 C -9,0 C 23,1 km/h (4 Bft)
06.12.2013 09:00 1,8 C 11,7 C 1,4 C 0,6 C -2,8 C 0,0 C 68 % 74 % 0 % 1009,8 hPa 0,0 l/m 19,6 km/h (3 Bft) S-SW 0,00 h 0,0 UV-I -3,5 C -8,8 C 25,5 km/h (4 Bft)
06.12.2013 10:00 2,2 C 11,7 C 2,0 C 1,1 C -2,1 C 0,0 C 67 % 73 % 0 % 1010,0 hPa 0,0 l/m 20,2 km/h (4 Bft) S-SW 0,00 h 0,0 UV-I -3,4 C -7,9 C 26,3 km/h (4 Bft)
06.12.2013 11:00 2,3 C 11,7 C 2,2 C 1,5 C -1,4 C 0,0 C 67 % 72 % 0 % 1010,6 hPa 0,0 l/m 18,2 km/h (3 Bft) S 0,00 h 0,0 UV-I -3,2 C -6,7 C 24,7 km/h (4 Bft)
06.12.2013 12:00 2,4 C 11,7 C 2,5 C 1,6 C -1,4 C 0,0 C 68 % 72 % 0 % 1010,3 hPa 0,0 l/m 19,5 km/h (3 Bft) S 0,00 h 0,0 UV-I -2,9 C -6,9 C 25,1 km/h (4 Bft)
06.12.2013 13:00 2,6 C 11,7 C 2,5 C 1,7 C -1,4 C 0,0 C 65 % 71 % 0 % 1010,7 hPa 0,0 l/m 20,1 km/h (4 Bft) S 0,00 h 0,0 UV-I -3,2 C -7,0 C 25,0 km/h (4 Bft)
06.12.2013 14:00 2,6 C 11,7 C 2,4 C 1,5 C -1,6 C 0,0 C 66 % 71 % 0 % 1010,9 hPa 0,7 l/m 19,9 km/h (4 Bft) SW 0,00 h 0,0 UV-I -3,1 C -7,3 C 23,9 km/h (4 Bft)
06.12.2013 15:00 2,3 C 11,7 C 2,1 C 1,3 C -1,8 C 0,0 C 69 % 74 % 0 % 1011,6 hPa 0,0 l/m 16,4 km/h (3 Bft) S 0,00 h 0,0 UV-I -2,8 C -6,9 C 19,2 km/h (3 Bft)
06.12.2013 16:00 2,1 C 11,7 C 1,9 C 0,9 C -2,5 C 0,0 C 72 % 76 % 0 % 1011,8 hPa 0,0 l/m 18,3 km/h (3 Bft) S 0,00 h 0,0 UV-I -2,5 C -8,1 C 24,8 km/h (4 Bft)
06.12.2013 17:00 1,6 C 11,8 C 1,5 C 0,5 C -3,1 C 0,0 C 78 % 80 % 0 % 1012,0 hPa 0,0 l/m 17,9 km/h (3 Bft) S 0,00 h 0,0 UV-I -1,9 C -8,8 C 19,7 km/h (3 Bft)
06.12.2013 18:00 1,1 C 11,9 C 1,1 C -0,0 C -3,4 C 0,0 C 83 % 83 % 0 % 1012,3 hPa 0,0 l/m 16,4 km/h (3 Bft) SW 0,00 h 0,0 UV-I -1,5 C -8,9 C 20,1 km/h (4 Bft)
06.12.2013 19:00 1,1 C 11,9 C 1,1 C -0,1 C -3,4 C 0,0 C 83 % 84 % 0 % 1013,6 hPa 0,0 l/m 16,2 km/h (3 Bft) S 0,00 h 0,0 UV-I -1,5 C -8,8 C 19,3 km/h (3 Bft)
06.12.2013 20:00 1,1 C 11,9 C 1,0 C 0,0 C -3,5 C 0,0 C 81 % 83 % 0 % 1013,8 hPa 0,0 l/m 16,2 km/h (3 Bft) S 0,00 h 0,0 UV-I -1,8 C -9,0 C 20,1 km/h (4 Bft)
06.12.2013 21:00 0,8 C 11,9 C 0,8 C -0,2 C -3,4 C 0,0 C 83 % 84 % 0 % 1014,6 hPa 0,0 l/m 14,6 km/h (3 Bft) S 0,00 h 0,0 UV-I -1,8 C -8,5 C 17,1 km/h (3 Bft)
06.12.2013 22:00 -0,7 C 12,0 C 0,1 C -1,3 C -3,4 C 0,0 C 87 % 87 % 0 % 1015,5 hPa 0,0 l/m 9,9 km/h (2 Bft) SW 0,00 h 0,0 UV-I -2,6 C -7,3 C 13,0 km/h (3 Bft)
06.12.2013 23:00 -0,7 C 11,9 C 0,0 C -1,4 C -3,9 C 0,0 C 87 % 86 % 0 % 1016,1 hPa 0,0 l/m 11,7 km/h (2 Bft) S 0,00 h 0,0 UV-I -2,6 C -8,4 C 15,4 km/h (3 Bft)
07.12.2013 00:00 -0,2 C 11,8 C 0,0 C -0,9 C -3,4 C 0,0 C 85 % 85 % 0 % 1017,1 hPa 0,0 l/m 10,7 km/h (2 Bft) S 0,00 h 0,0 UV-I -2,4 C -7,6 C 12,8 km/h (3 Bft)
07.12.2013 01:00 -0,1 C 11,8 C 0,0 C -1,0 C -3,4 C 0,0 C 84 % 85 % 0 % 1017,8 hPa 0,0 l/m 11,0 km/h (2 Bft) S 0,00 h 0,0 UV-I -2,4 C -7,7 C 13,5 km/h (3 Bft)
07.12.2013 02:00 -0,6 C 11,8 C -0,4 C -1,4 C -3,9 C 0,0 C 85 % 85 % 0 % 1018,2 hPa 0,0 l/m 10,2 km/h (2 Bft) S 0,00 h 0,0 UV-I -2,8 C -8,0 C 11,6 km/h (2 Bft)
07.12.2013 03:00 -0,1 C 11,6 C -0,0 C -0,9 C -3,7 C 0,0 C 82 % 83 % 0 % 1019,0 hPa 0,0 l/m 11,9 km/h (2 Bft) S 0,00 h 0,0 UV-I -2,7 C -8,2 C 14,7 km/h (3 Bft)
07.12.2013 04:00 -0,1 C 11,7 C -0,0 C -1,0 C -3,6 C 0,0 C 83 % 84 % 0 % 1019,4 hPa 0,0 l/m 10,9 km/h (2 Bft) SW 0,00 h 0,0 UV-I -2,7 C -7,9 C 13,7 km/h (3 Bft)
07.12.2013 05:00 -0,2 C 11,6 C -0,1 C -1,1 C -3,4 C 0,0 C 84 % 84 % 0 % 1019,9 hPa 0,0 l/m 10,1 km/h (2 Bft) S 0,00 h 0,0 UV-I -2,6 C -7,4 C 11,3 km/h (2 Bft)
07.12.2013 06:00 0,0 C 11,6 C -0,0 C -0,8 C -3,6 C 0,0 C 83 % 84 % 0 % 1020,4 hPa 0,0 l/m 11,2 km/h (2 Bft) S-SW 0,00 h 0,0 UV-I -2,5 C -7,9 C 14,8 km/h (3 Bft)
07.12.2013 07:00 0,1 C 11,6 C 0,1 C -0,6 C -3,0 C 0,0 C 83 % 85 % 0 % 1020,8 hPa 0,0 l/m 9,6 km/h (2 Bft) S 0,00 h 0,0 UV-I -2,4 C -6,7 C 13,0 km/h (3 Bft)
07.12.2013 08:00 0,2 C 11,6 C 0,3 C -0,4 C -2,6 C 0,0 C 84 % 85 % 0 % 1021,3 hPa 0,0 l/m 9,4 km/h (2 Bft) S 0,00 h 0,0 UV-I -2,1 C -6,2 C 11,0 km/h (2 Bft)
07.12.2013 09:00 0,9 C 11,6 C 1,0 C 0,3 C -1,8 C 0,0 C 82 % 83 % 0 % 1022,2 hPa 0,0 l/m 10,1 km/h (2 Bft) S 0,00 h 0,0 UV-I -1,9 C -5,5 C 12,1 km/h (2 Bft)
07.12.2013 10:00 1,6 C 11,6 C 1,6 C 0,8 C -1,6 C 0,0 C 80 % 82 % 0 % 1023,0 hPa 0,0 l/m 12,6 km/h (3 Bft) S 0,00 h 0,0 UV-I -1,6 C -5,9 C 16,9 km/h (3 Bft)
07.12.2013 11:00 1,9 C 11,6 C 2,1 C 1,3 C -0,8 C 0,0 C 79 % 81 % 0 % 1023,1 hPa 0,0 l/m 11,6 km/h (2 Bft) S 0,00 h 0,0 UV-I -1,4 C -4,6 C 14,1 km/h (3 Bft)
07.12.2013 12:00 2,1 C 11,6 C 1,9 C 1,6 C -0,5 C 0,0 C 77 % 85 % 0 % 1023,6 hPa 0,0 l/m 12,5 km/h (3 Bft) S 0,00 h 0,0 UV-I -1,5 C -4,5 C 15,4 km/h (3 Bft)
07.12.2013 13:00 2,0 C 11,6 C 1,9 C 1,5 C -0,5 C 0,0 C 80 % 86 % 0 % 1023,9 hPa 0,0 l/m 12,0 km/h (2 Bft) S-SO 0,00 h 0,0 UV-I -1,0 C -4,3 C 16,2 km/h (3 Bft)
07.12.2013 14:00 1,8 C 11,7 C 1,7 C 1,1 C -1,1 C 0,0 C 83 % 87 % 0 % 1023,9 hPa 0,7 l/m 11,3 km/h (2 Bft) S 0,00 h 0,0 UV-I -0,8 C -5,0 C 13,0 km/h (3 Bft)
07.12.2013 15:00 0,7 C 11,8 C 1,2 C 0,1 C -1,5 C 0,0 C 87 % 88 % 0 % 1023,6 hPa 0,0 l/m 7,7 km/h (2 Bft) S 0,00 h 0,0 UV-I -1,3 C -4,3 C 9,7 km/h (2 Bft)
07.12.2013 16:00 -0,1 C 11,8 C 0,9 C -0,6 C -1,9 C 0,0 C 89 % 89 % 0 % 1023,8 hPa 0,0 l/m 7,5 km/h (2 Bft) S 0,00 h 0,0 UV-I -1,6 C -4,8 C 9,5 km/h (2 Bft)
07.12.2013 17:00 0,1 C 11,8 C 0,9 C -0,5 C -1,5 C 0,0 C 89 % 90 % 0 % 1024,0 hPa 0,0 l/m 6,7 km/h (2 Bft) S 0,00 h 0,0 UV-I -1,5 C -4,0 C 7,3 km/h (2 Bft)
07.12.2013 18:00 0,4 C 11,8 C 1,1 C -0,1 C -1,6 C 0,0 C 89 % 90 % 0 % 1023,8 hPa 0,0 l/m 8,3 km/h (2 Bft) S 0,00 h 0,0 UV-I -1,2 C -4,7 C 9,9 km/h (2 Bft)
07.12.2013 19:00 0,3 C 11,8 C 1,1 C -0,1 C -1,0 C 0,0 C 89 % 90 % 0 % 1023,8 hPa 0,7 l/m 6,4 km/h (2 Bft) S 0,00 h 0,0 UV-I -1,3 C -3,1 C 7,9 km/h (2 Bft)
07.12.2013 20:00 0,0 C 11,8 C 0,9 C -0,3 C -0,8 C 0,0 C 90 % 90 % 0 % 1023,8 hPa 0,0 l/m 5,1 km/h (1 Bft) S 0,00 h 0,0 UV-I -1,5 C -2,1 C 8,4 km/h (2 Bft)
07.12.2013 21:00 0,0 C 11,8 C 1,0 C 0,1 C -0,2 C 0,1 C 90 % 90 % 0 % 1023,9 hPa 0,7 l/m 4,1 km/h (1 Bft) S 0,00 h 0,0 UV-I -1,4 C -0,9 C 4,5 km/h (1 Bft)
07.12.2013 22:00 0,0 C 11,8 C 1,1 C 0,8 C 0,8 C 0,8 C 90 % 91 % 0 % 1023,9 hPa 0,0 l/m 1,0 km/h (0 Bft) S 0,00 h 0,0 UV-I -1,4 C 0,8 C 1,1 km/h (0 Bft)
07.12.2013 23:00 0,3 C 11,9 C 1,3 C 1,2 C 1,2 C 0,8 C 91 % 91 % 0 % 1024,0 hPa 0,0 l/m 1,1 km/h (1 Bft) SW 0,00 h 0,0 UV-I -1,0 C 1,2 C 1,5 km/h (1 Bft)
08.12.2013 00:00 0,4 C 11,9 C 1,4 C 1,4 C 1,4 C 0,9 C 90 % 91 % 0 % 1024,0 hPa 0,7 l/m 0,1 km/h (0 Bft) N 0,00 h 0,0 UV-I -0,9 C 1,4 C 0,3 km/h (0 Bft)
08.12.2013 01:00 0,7 C 11,9 C 1,6 C 1,6 C 1,6 C 0,9 C 91 % 91 % 0 % 1024,1 hPa 0,7 l/m 0,6 km/h (0 Bft) S 0,00 h 0,0 UV-I -0,6 C 1,6 C 1,0 km/h (0 Bft)
08.12.2013 02:00 1,0 C 12,0 C 1,8 C 1,9 C 1,9 C 0,9 C 91 % 91 % 0 % 1023,7 hPa 0,0 l/m 1,1 km/h (1 Bft) S 0,00 h 0,0 UV-I -0,3 C 1,9 C 1,2 km/h (1 Bft)
08.12.2013 03:00 1,2 C 12,1 C 2,0 C 2,1 C 2,1 C 0,9 C 91 % 91 % 0 % 1023,5 hPa 0,0 l/m 0,2 km/h (0 Bft) N 0,00 h 0,0 UV-I -0,1 C 2,1 C 0,0 km/h (0 Bft)
08.12.2013 04:00 1,4 C 12,1 C 2,2 C 2,3 C 2,3 C 0,9 C 91 % 91 % 0 % 1023,3 hPa 0,7 l/m 1,5 km/h (1 Bft) S-SO 0,00 h 0,0 UV-I 0,1 C 2,3 C 2,4 km/h (1 Bft)
08.12.2013 05:00 1,7 C 12,1 C 2,4 C 2,3 C 2,3 C 0,6 C 91 % 91 % 0 % 1023,6 hPa 0,0 l/m 2,8 km/h (1 Bft) S 0,00 h 0,0 UV-I 0,4 C 2,3 C 3,1 km/h (1 Bft)
08.12.2013 06:00 2,0 C 12,2 C 2,6 C 2,4 C 2,3 C 0,5 C 91 % 91 % 0 % 1023,3 hPa 0,0 l/m 3,3 km/h (1 Bft) S-SW 0,00 h 0,0 UV-I 0,7 C 2,1 C 5,0 km/h (1 Bft)
08.12.2013 07:00 2,3 C 12,2 C 2,8 C 2,3 C 2,1 C 0,1 C 91 % 91 % 0 % 1023,2 hPa 0,0 l/m 4,6 km/h (1 Bft) S 0,00 h 0,0 UV-I 1,0 C 1,5 C 5,1 km/h (1 Bft)
08.12.2013 08:00 2,4 C 12,2 C 2,9 C 2,4 C 2,3 C 0,0 C 90 % 91 % 1 % 1023,5 hPa 0,0 l/m 4,4 km/h (1 Bft) S 0,00 h 0,0 UV-I 0,9 C 2,1 C 7,0 km/h (2 Bft)
08.12.2013 09:00 2,9 C 12,2 C 3,3 C 2,8 C 2,5 C 0,0 C 89 % 92 % 0 % 1024,2 hPa 0,0 l/m 6,7 km/h (2 Bft) S 0,00 h 0,0 UV-I 1,3 C 0,6 C 8,4 km/h (2 Bft)
08.12.2013 10:00 3,6 C 12,1 C 3,9 C 3,6 C 3,3 C 0,1 C 88 % 91 % 1 % 1025,2 hPa 0,0 l/m 6,1 km/h (2 Bft) S 0,00 h 0,0 UV-I 1,8 C 1,9 C 7,9 km/h (2 Bft)
08.12.2013 11:00 4,2 C 12,2 C 4,6 C 5,5 C 5,5 C 1,3 C 88 % 91 % 34 % 1025,0 hPa 0,7 l/m 3,0 km/h (1 Bft) O-SO 0,00 h 0,0 UV-I 2,4 C 5,5 C 3,4 km/h (1 Bft)
08.12.2013 12:00 5,3 C 12,1 C 5,3 C 6,0 C 5,9 C 0,7 C 85 % 91 % 18 % 1024,5 hPa 0,0 l/m 6,3 km/h (2 Bft) S 0,00 h 0,0 UV-I 2,9 C 4,7 C 11,0 km/h (2 Bft)
08.12.2013 13:00 5,9 C 12,2 C 5,7 C 6,6 C 6,6 C 0,7 C 82 % 90 % 20 % 1024,3 hPa 0,0 l/m 5,0 km/h (1 Bft) SO 0,00 h 0,0 UV-I 3,1 C 6,0 C 7,8 km/h (2 Bft)
08.12.2013 14:00 5,7 C 12,3 C 5,7 C 5,7 C 5,7 C 0,1 C 82 % 89 % 2 % 1023,6 hPa 0,0 l/m 5,1 km/h (1 Bft) S 0,00 h 0,0 UV-I 2,9 C 4,9 C 5,9 km/h (2 Bft)
08.12.2013 15:00 5,5 C 12,4 C 5,4 C 5,3 C 4,5 C 0,0 C 83 % 87 % 1 % 1023,7 hPa 0,0 l/m 7,4 km/h (2 Bft) S-SO 0,00 h 0,0 UV-I 2,8 C 2,8 C 12,5 km/h (3 Bft)
08.12.2013 16:00 5,4 C 12,5 C 5,2 C 5,0 C 3,4 C 0,0 C 83 % 86 % 0 % 1023,5 hPa 0,0 l/m 9,9 km/h (2 Bft) S-SO 0,00 h 0,0 UV-I 2,8 C 0,8 C 12,9 km/h (3 Bft)
08.12.2013 17:00 5,5 C 12,5 C 5,2 C 5,1 C 3,8 C 0,0 C 83 % 86 % 0 % 1023,3 hPa 0,0 l/m 9,6 km/h (2 Bft) S 0,00 h 0,0 UV-I 2,8 C 1,3 C 10,9 km/h (2 Bft)
08.12.2013 18:00 5,6 C 12,6 C 5,2 C 5,2 C 3,9 C 0,0 C 82 % 86 % 0 % 1023,0 hPa 0,0 l/m 9,2 km/h (2 Bft) S-SW 0,00 h 0,0 UV-I 2,8 C 1,6 C 10,8 km/h (2 Bft)
08.12.2013 19:00 5,8 C 12,6 C 5,3 C 5,4 C 3,9 C 0,0 C 81 % 85 % 0 % 1023,2 hPa 0,0 l/m 9,8 km/h (2 Bft) S 0,00 h 0,0 UV-I 2,8 C 1,5 C 12,1 km/h (2 Bft)
08.12.2013 20:00 5,9 C 12,7 C 5,4 C 5,5 C 4,3 C 0,0 C 81 % 85 % 0 % 1022,8 hPa 0,0 l/m 8,5 km/h (2 Bft) S 0,00 h 0,0 UV-I 2,9 C 2,2 C 11,3 km/h (2 Bft)
08.12.2013 21:00 6,0 C 12,7 C 5,5 C 5,6 C 4,6 C 0,0 C 81 % 84 % 0 % 1022,1 hPa 0,0 l/m 8,0 km/h (2 Bft) S 0,00 h 0,0 UV-I 3,0 C 2,6 C 12,2 km/h (2 Bft)
08.12.2013 22:00 6,0 C 12,7 C 5,6 C 5,6 C 4,3 C 0,0 C 82 % 84 % 0 % 1022,1 hPa 0,0 l/m 9,8 km/h (2 Bft) S 0,00 h 0,0 UV-I 3,2 C 1,8 C 15,6 km/h (3 Bft)
08.12.2013 23:00 6,3 C 12,8 C 5,8 C 5,9 C 4,7 C 0,0 C 82 % 84 % 0 % 1021,7 hPa 0,0 l/m 9,0 km/h (2 Bft) S 0,00 h 0,0 UV-I 3,4 C 2,6 C 13,0 km/h (3 Bft)
Min-Datum _ 03.12.13 07.12.13 04.12.13 03.12.13 03.12.13 02.12.13 06.12.13 06.12.13 02.12.13 05.12.13 - 02.12.13 - - 02.12.13 03.12.13 06.12.13 02.12.13
_ Min-Zeit 08:30 09:40 03:10 07:30 07:30 15:25 05:25 13:05 00:00 20:30 - 02:55 - - 00:00 08:30 07:15 00:00
Minimum _ -4,9 C 11,5 C -3,5 C -4,8 C -4,9 C 0,0 C 65 % 71 % 0 % 1004,2 hPa - 0,0 km/h (0 Bft) - - 0,0 UV-I -6,1 C -10,9 C 0,0 km/h (0 Bft)
Max-Datum _ 08.12.13 02.12.13 08.12.13 02.12.13 02.12.13 03.12.13 03.12.13 05.12.13 03.12.13 02.12.13 04.12.13 05.12.13 - 03.12.13 02.12.13 08.12.13 02.12.13 06.12.13
_ Max-Zeit 23:40 16:50 23:40 14:00 14:00 11:30 09:40 05:25 11:30 12:30 20:00 23:00 - 12:41 00:00 23:50 14:00 10:20
Maximum _ 6,4 C 14,5 C 6,0 C 7,9 C 7,9 C 3,8 C 92 % 92 % 100 % 1036,1 hPa 1,4 l/m 24,3 km/h
W-SW (4 Bft)
- 0,10 h 0,0 UV-I 3,6 C 7,9 C 55,4 km/h
S-SW (7 Bft)
Durchschnitt _ 1,2 C 12,5 C 1,5 C 1,1 C -0,1 C 0,3 C 84 % 86 % 4 % 1023,2 hPa #11,0 l/m 6,7 km/h (2 Bft) S #1:46 h 0,0 UV-I -1,1 C -2,1 C 8,8 km/h (2 Bft)
2013 www.wetterstation-wechselburg.de